Time;durP1;ratioP1;P1;durP2;ratioP2;P2;SDS_P1;SDS_P2;PMS_P1;PMS_P2;Temp;Humidity;BMP_temperature;BMP_pressure;BME280_temperature;BME280_humidity;BME280_pressure;Samples;Min_cycle;Max_cycle;Signal;HPM_P1;HPM_P2
2022/03/29 00:00:52;;;;;;;3.53;3.15;;;17.90;54.00;;;;;;5133818;28;20179;-71
2022/03/29 00:03:17;;;;;;;3.35;3.05;;;17.90;54.10;;;;;;5133210;28;20256;-70
2022/03/29 00:05:43;;;;;;;3.78;3.38;;;17.80;54.00;;;;;;5132688;28;20191;-72
2022/03/29 00:08:08;;;;;;;4.57;3.70;;;17.80;54.00;;;;;;5133462;28;20631;-73
2022/03/29 00:10:34;;;;;;;4.07;3.67;;;17.80;54.00;;;;;;5133577;28;20192;-74
2022/03/29 00:12:59;;;;;;;3.30;3.00;;;17.80;54.00;;;;;;5132818;28;20218;-74
2022/03/29 00:15:25;;;;;;;4.05;3.40;;;17.80;54.00;;;;;;5133112;28;20236;-73
2022/03/29 00:17:50;;;;;;;5.43;3.55;;;17.80;54.60;;;;;;5133361;28;20233;-73
2022/03/29 00:20:17;;;;;;;3.75;3.45;;;17.80;54.00;;;;;;5132590;28;20173;-72
2022/03/29 00:22:43;;;;;;;3.90;3.60;;;17.80;54.10;;;;;;5133536;28;20181;-73
2022/03/29 00:25:09;;;;;;;3.38;3.08;;;17.80;54.00;;;;;;5114935;28;20183;-72
2022/03/29 00:27:35;;;;;;;3.38;3.10;;;17.70;54.00;;;;;;5132794;28;20631;-73
2022/03/29 00:30:01;;;;;;;3.80;3.50;;;17.80;54.00;;;;;;5133295;28;20181;-73
2022/03/29 00:32:26;;;;;;;3.80;3.50;;;17.70;54.00;;;;;;5132883;27;20176;-71
2022/03/29 00:34:52;;;;;;;3.35;3.15;;;17.80;54.10;;;;;;5132766;28;20176;-70
2022/03/29 00:37:17;;;;;;;3.90;3.50;;;17.80;54.70;;;;;;5132766;28;20204;-72
2022/03/29 00:39:43;;;;;;;3.47;3.17;;;17.70;54.00;;;;;;5132499;28;20526;-73
2022/03/29 00:42:08;;;;;;;4.10;3.80;;;17.70;54.00;;;;;;5133344;27;20172;-73
2022/03/29 00:44:35;;;;;;;3.72;3.42;;;17.70;54.00;;;;;;5137191;27;20168;-73
2022/03/29 00:47:01;;;;;;;3.50;3.08;;;17.70;54.10;;;;;;5136327;27;20233;-72
2022/03/29 00:49:27;;;;;;;3.88;3.55;;;17.80;54.10;;;;;;5136888;27;20168;-73
2022/03/29 00:51:58;;;;;;;4.05;3.70;;;17.70;54.00;;;;;;5137122;27;20185;-73
2022/03/29 00:54:24;;;;;;;4.20;3.85;;;17.70;54.00;;;;;;5136226;27;20173;-73
2022/03/29 00:56:50;;;;;;;4.70;4.05;;;17.70;54.00;;;;;;5118579;27;20260;-72
2022/03/29 00:59:15;;;;;;;4.03;3.55;;;17.70;54.00;;;;;;5136524;27;20183;-71
2022/03/29 01:01:41;;;;;;;3.80;3.50;;;17.70;54.00;;;;;;5117541;27;20320;-71
2022/03/29 01:04:06;;;;;;;4.50;3.58;;;17.70;54.00;;;;;;5136646;27;20171;-71
2022/03/29 01:06:32;;;;;;;4.00;3.60;;;17.70;54.00;;;;;;5136557;27;20193;-72
2022/03/29 01:08:58;;;;;;;3.70;3.40;;;17.70;54.00;;;;;;5117666;27;20527;-72
2022/03/29 01:11:25;;;;;;;4.30;3.90;;;17.70;54.00;;;;;;5100761;27;20257;-75
2022/03/29 01:13:50;;;;;;;3.85;3.55;;;17.60;53.90;;;;;;5101260;27;20171;-74
2022/03/29 01:19:00;;;;;;;4.25;3.85;;;17.60;54.00;;;;;;5136540;27;20172;-72
2022/03/29 01:21:25;;;;;;;3.83;3.53;;;17.60;54.00;;;;;;5117793;27;21000;-72
2022/03/29 01:23:51;;;;;;;3.70;3.40;;;17.60;54.00;;;;;;5100482;27;20160;-73
2022/03/29 01:26:16;;;;;;;3.72;3.42;;;17.60;54.00;;;;;;5117658;27;20180;-73
2022/03/29 01:28:42;;;;;;;3.90;3.60;;;17.60;54.00;;;;;;5136252;27;20217;-73
2022/03/29 01:31:08;;;;;;;4.57;4.18;;;17.60;54.00;;;;;;5135357;27;20180;-72
2022/03/29 01:33:34;;;;;;;3.88;3.58;;;17.60;54.00;;;;;;5117985;27;20179;-71
2022/03/29 01:35:59;;;;;;;4.05;3.65;;;17.60;54.00;;;;;;5135303;27;20291;-71
2022/03/29 01:38:25;;;;;;;4.13;3.83;;;17.60;54.00;;;;;;5100438;27;20193;-72
2022/03/29 01:40:50;;;;;;;4.25;3.95;;;17.60;54.00;;;;;;5135976;27;20175;-72
2022/03/29 01:43:16;;;;;;;4.25;3.88;;;17.60;54.00;;;;;;5134829;27;20631;-72
2022/03/29 01:45:41;;;;;;;3.92;3.63;;;17.60;54.10;;;;;;5136107;27;20172;-73
2022/03/29 01:48:07;;;;;;;4.30;3.90;;;17.60;54.00;;;;;;5135598;27;20211;-73
2022/03/29 01:50:33;;;;;;;3.97;3.67;;;17.60;54.00;;;;;;5135249;27;20536;-73
2022/03/29 01:52:58;;;;;;;4.20;3.80;;;17.60;54.00;;;;;;5135765;27;20161;-72
2022/03/29 01:55:24;;;;;;;4.82;4.32;;;17.60;54.00;;;;;;5135204;27;20285;-72
2022/03/29 01:57:50;;;;;;;4.03;3.72;;;17.60;54.00;;;;;;5134876;27;20693;-72
2022/03/29 02:00:30;;;;;;;4.05;3.47;;;17.60;54.00;;;;;;5135528;27;20517;-72
2022/03/29 02:02:56;;;;;;;3.53;3.22;;;17.60;54.00;;;;;;5135514;27;20654;-71
2022/03/29 02:05:22;;;;;;;3.90;3.60;;;17.60;53.90;;;;;;5134548;27;20177;-73
2022/03/29 02:07:47;;;;;;;3.80;3.50;;;17.60;54.00;;;;;;5135421;27;20169;-72
2022/03/29 02:10:17;;;;;;;4.18;3.65;;;17.50;54.00;;;;;;5135048;27;20173;-74
2022/03/29 02:12:43;;;;;;;4.20;3.90;;;17.50;54.00;;;;;;5134969;27;20600;-73
2022/03/29 02:15:08;;;;;;;4.30;4.00;;;17.50;54.00;;;;;;5135186;27;20635;-73
2022/03/29 02:17:34;;;;;;;4.10;3.72;;;17.50;54.00;;;;;;5135250;27;20225;-73
2022/03/29 02:19:59;;;;;;;4.00;3.70;;;17.50;54.10;;;;;;5116118;27;20576;-73
2022/03/29 02:22:25;;;;;;;4.32;3.92;;;17.50;54.10;;;;;;5133976;27;20199;-73
2022/03/29 02:24:50;;;;;;;4.35;3.97;;;17.50;54.00;;;;;;5134129;27;20300;-71
2022/03/29 02:27:16;;;;;;;4.18;3.88;;;17.50;54.00;;;;;;5133234;27;20164;-72
2022/03/29 02:29:41;;;;;;;3.80;3.50;;;17.50;54.00;;;;;;5134424;27;20213;-72
2022/03/29 02:32:08;;;;;;;4.30;3.97;;;17.50;54.00;;;;;;5134004;27;20631;-72
2022/03/29 02:34:34;;;;;;;4.50;4.18;;;17.50;54.00;;;;;;5134049;27;20188;-72
2022/03/29 02:36:59;;;;;;;3.45;3.25;;;17.50;54.10;;;;;;5134200;27;20257;-71
2022/03/29 02:39:25;;;;;;;4.32;3.97;;;17.50;54.00;;;;;;5133293;27;20555;-72
2022/03/29 02:41:50;;;;;;;4.07;3.78;;;17.50;54.00;;;;;;5134267;27;20177;-72
2022/03/29 02:44:16;;;;;;;4.30;4.00;;;17.50;54.00;;;;;;5133961;27;20168;-72
2022/03/29 02:46:44;;;;;;;4.28;3.88;;;17.40;54.00;;;;;;5133293;27;20639;-73
2022/03/29 02:49:09;;;;;;;4.32;4.03;;;17.40;54.00;;;;;;5133398;27;20601;-73
2022/03/29 02:51:35;;;;;;;4.30;3.90;;;17.40;54.00;;;;;;5133713;27;20267;-73
2022/03/29 02:54:00;;;;;;;4.38;4.05;;;17.40;54.00;;;;;;5132833;27;20259;-72
2022/03/29 02:56:26;;;;;;;3.90;3.60;;;17.40;54.00;;;;;;5133145;27;20232;-72
2022/03/29 02:58:51;;;;;;;4.30;4.00;;;17.40;54.00;;;;;;5133488;27;20229;-72
2022/03/29 03:01:17;;;;;;;4.15;3.85;;;17.40;54.00;;;;;;5132516;27;20534;-72
2022/03/29 03:03:43;;;;;;;3.92;3.63;;;17.40;54.00;;;;;;5133726;27;20176;-72
2022/03/29 03:06:09;;;;;;;3.83;3.53;;;17.40;54.00;;;;;;5132738;27;20168;-72
2022/03/29 03:08:34;;;;;;;3.83;3.53;;;17.40;54.60;;;;;;5132773;27;20168;-73
2022/03/29 03:10:59;;;;;;;4.20;3.90;;;17.40;54.00;;;;;;5133539;27;20168;-75
2022/03/29 03:13:25;;;;;;;4.22;3.85;;;17.40;54.00;;;;;;5132998;27;20172;-75
2022/03/29 03:15:51;;;;;;;5.60;3.97;;;17.40;54.00;;;;;;5132623;27;20192;-76
2022/03/29 03:18:16;;;;;;;3.90;3.60;;;17.40;54.00;;;;;;5133035;27;20546;-74
2022/03/29 03:20:42;;;;;;;4.35;4.00;;;17.40;54.00;;;;;;5133237;27;20172;-74
2022/03/29 03:23:07;;;;;;;3.72;3.42;;;17.40;54.10;;;;;;5131915;27;20225;-73
2022/03/29 03:25:33;;;;;;;4.55;4.25;;;17.40;54.00;;;;;;5133241;27;20251;-73
2022/03/29 03:27:58;;;;;;;4.70;4.38;;;17.40;54.00;;;;;;5133131;27;20184;-74
2022/03/29 03:30:24;;;;;;;4.45;4.10;;;17.30;54.00;;;;;;5132413;27;20176;-73
2022/03/29 03:32:50;;;;;;;4.00;3.70;;;17.40;54.10;;;;;;5133024;27;20172;-71
2022/03/29 03:35:15;;;;;;;4.03;3.72;;;17.40;54.10;;;;;;5132655;27;20252;-72
2022/03/29 03:37:41;;;;;;;4.35;3.95;;;17.30;54.00;;;;;;5132271;27;20180;-71
2022/03/29 03:40:08;;;;;;;4.63;4.22;;;17.30;54.00;;;;;;5132371;27;20203;-73
2022/03/29 03:42:35;;;;;;;3.60;3.30;;;17.30;54.00;;;;;;5114126;27;20188;-73
2022/03/29 03:45:03;;;;;;;4.25;3.95;;;17.30;54.00;;;;;;5132837;27;20165;-73
2022/03/29 03:47:29;;;;;;;4.00;3.70;;;17.30;54.00;;;;;;5132388;27;20676;-74
2022/03/29 03:49:54;;;;;;;4.35;4.03;;;17.30;54.00;;;;;;5132144;27;20176;-73
2022/03/29 03:52:20;;;;;;;4.22;3.92;;;17.30;54.00;;;;;;5132292;27;20531;-74
2022/03/29 03:54:46;;;;;;;4.30;3.90;;;17.30;54.00;;;;;;5132788;27;20188;-73
2022/03/29 03:57:11;;;;;;;4.18;3.88;;;17.30;54.00;;;;;;5131402;28;20267;-72
2022/03/29 03:59:36;;;;;;;4.30;4.00;;;17.30;54.00;;;;;;5132484;28;20610;-72
2022/03/29 04:02:02;;;;;;;3.85;3.50;;;17.30;54.10;;;;;;5132778;28;20169;-71
2022/03/29 04:04:28;;;;;;;3.95;3.67;;;17.20;54.00;;;;;;5131729;28;20176;-72
2022/03/29 04:06:54;;;;;;;4.30;4.00;;;17.30;54.00;;;;;;5132572;27;20255;-73
2022/03/29 04:09:19;;;;;;;4.65;4.25;;;17.30;54.10;;;;;;5132218;28;20532;-73
2022/03/29 04:11:45;;;;;;;4.22;3.92;;;17.20;54.00;;;;;;5131811;27;20401;-75
2022/03/29 04:14:10;;;;;;;4.45;4.05;;;17.30;54.10;;;;;;5132110;28;20187;-75
2022/03/29 04:16:36;;;;;;;4.47;4.13;;;17.20;54.10;;;;;;5132481;27;20224;-75
2022/03/29 04:19:01;;;;;;;4.53;4.13;;;17.30;54.10;;;;;;5135433;27;20652;-73
2022/03/29 04:21:27;;;;;;;3.75;3.45;;;17.30;54.10;;;;;;5136172;27;20682;-74
2022/03/29 04:23:53;;;;;;;4.00;3.70;;;17.20;54.00;;;;;;5136841;27;20249;-74
2022/03/29 04:26:18;;;;;;;4.22;3.92;;;17.20;54.00;;;;;;5135476;27;20181;-74
2022/03/29 04:28:44;;;;;;;4.43;4.03;;;17.20;54.10;;;;;;5136502;27;20642;-74
2022/03/29 04:31:09;;;;;;;4.43;4.13;;;17.20;54.00;;;;;;5136279;27;20180;-73
2022/03/29 04:33:35;;;;;;;4.10;3.80;;;17.20;54.10;;;;;;5135727;27;20172;-73
2022/03/29 04:36:00;;;;;;;4.47;4.07;;;17.20;54.00;;;;;;5100824;27;20284;-72
2022/03/29 04:38:26;;;;;;;4.68;4.35;;;17.20;54.00;;;;;;5136263;27;20272;-73
2022/03/29 04:40:52;;;;;;;4.20;3.90;;;17.20;54.00;;;;;;5135707;27;20165;-73
2022/03/29 04:43:17;;;;;;;4.85;4.32;;;17.20;54.10;;;;;;5136154;27;20622;-73
2022/03/29 04:45:43;;;;;;;4.30;4.00;;;17.20;54.10;;;;;;5136270;27;20164;-73
2022/03/29 04:48:10;;;;;;;4.20;3.90;;;17.20;54.10;;;;;;5135164;27;20291;-73
2022/03/29 04:50:36;;;;;;;4.43;4.13;;;17.20;54.10;;;;;;5136090;27;20191;-73
2022/03/29 04:53:01;;;;;;;4.10;3.80;;;17.20;54.00;;;;;;5135394;27;20560;-73
2022/03/29 04:55:27;;;;;;;4.28;3.97;;;17.20;54.10;;;;;;5135398;27;20697;-72
2022/03/29 04:57:52;;;;;;;4.13;3.83;;;17.20;54.10;;;;;;5136156;27;20180;-72
2022/03/29 05:00:20;;;;;;;4.10;3.80;;;17.20;54.10;;;;;;5135239;27;20542;-71
2022/03/29 05:02:46;;;;;;;4.50;4.18;;;17.20;54.10;;;;;;5135908;27;20191;-70
2022/03/29 05:05:12;;;;;;;3.95;3.65;;;17.10;54.00;;;;;;5135374;27;20168;-68
2022/03/29 05:07:38;;;;;;;4.65;4.25;;;17.10;54.00;;;;;;5135333;27;20645;-70
2022/03/29 05:10:04;;;;;;;4.05;3.75;;;17.20;54.10;;;;;;5135678;27;20459;-73
2022/03/29 05:12:29;;;;;;;4.35;4.05;;;17.10;54.00;;;;;;5117296;27;20176;-73
2022/03/29 05:14:58;;;;;;;4.07;3.78;;;17.10;54.10;;;;;;5134998;27;20176;-73
2022/03/29 05:17:23;;;;;;;4.75;4.35;;;17.10;54.10;;;;;;5135340;27;20222;-73
2022/03/29 05:19:49;;;;;;;4.70;4.30;;;17.10;54.10;;;;;;5135677;27;20160;-72
2022/03/29 05:22:14;;;;;;;4.45;4.13;;;17.10;54.10;;;;;;5134723;27;20176;-73
2022/03/29 05:24:40;;;;;;;3.83;3.53;;;17.10;54.10;;;;;;5135618;27;20168;-73
2022/03/29 05:27:06;;;;;;;4.80;4.40;;;17.10;54.10;;;;;;5135663;27;20173;-72
2022/03/29 05:29:31;;;;;;;4.63;4.22;;;17.10;54.10;;;;;;5134325;27;20606;-73
2022/03/29 05:31:58;;;;;;;4.25;3.88;;;17.10;54.10;;;;;;5135388;27;20260;-72
2022/03/29 05:34:23;;;;;;;4.53;4.13;;;17.10;54.10;;;;;;5135039;27;20188;-69
2022/03/29 05:36:49;;;;;;;4.28;3.97;;;17.10;54.10;;;;;;5134891;27;20264;-70
2022/03/29 05:39:15;;;;;;;4.18;3.88;;;17.10;54.10;;;;;;5135101;27;20184;-70
2022/03/29 05:41:41;;;;;;;3.88;3.58;;;17.10;54.10;;;;;;5135717;27;20173;-72
2022/03/29 05:44:07;;;;;;;4.40;4.10;;;17.10;54.10;;;;;;5134297;27;20540;-73
2022/03/29 05:49:17;;;;;;;4.00;3.70;;;17.00;54.00;;;;;;5134283;27;20186;-73
2022/03/29 05:51:42;;;;;;;4.40;4.00;;;17.10;54.00;;;;;;5135035;27;20176;-72
2022/03/29 05:54:08;;;;;;;4.95;4.55;;;17.10;54.10;;;;;;5134442;27;20172;-71
2022/03/29 05:56:33;;;;;;;4.32;4.03;;;17.00;54.00;;;;;;5133766;27;20220;-72
2022/03/29 05:58:59;;;;;;;4.03;3.72;;;17.00;54.00;;;;;;5134547;27;20639;-73
2022/03/29 06:01:25;;;;;;;4.60;4.20;;;17.00;54.00;;;;;;5134323;27;20173;-72
2022/03/29 06:03:50;;;;;;;4.22;3.85;;;17.00;54.60;;;;;;5134298;27;20176;-72
2022/03/29 06:06:16;;;;;;;4.90;4.50;;;17.00;54.00;;;;;;5134527;27;20183;-73
2022/03/29 06:08:42;;;;;;;4.95;4.32;;;17.00;54.00;;;;;;5135047;27;20606;-74
2022/03/29 06:11:07;;;;;;;5.25;4.53;;;17.10;54.10;;;;;;5133430;27;20587;-74
2022/03/29 06:13:33;;;;;;;5.40;4.90;;;17.00;54.00;;;;;;5134563;27;20209;-75
2022/03/29 06:15:59;;;;;;;5.53;4.90;;;17.10;54.20;;;;;;5134301;27;20295;-75
2022/03/29 06:18:25;;;;;;;5.30;4.90;;;17.10;54.20;;;;;;5133273;27;20238;-73
2022/03/29 06:20:50;;;;;;;6.20;5.60;;;17.10;54.20;;;;;;5134529;27;20168;-76
2022/03/29 06:23:16;;;;;;;5.43;4.90;;;17.10;54.30;;;;;;5134133;27;20180;-75
2022/03/29 06:25:42;;;;;;;6.00;5.50;;;17.10;54.30;;;;;;5133520;27;20226;-75
2022/03/29 06:28:07;;;;;;;13.65;6.10;;;17.10;54.30;;;;;;5133974;27;20255;-70
2022/03/29 06:30:33;;;;;;;5.90;5.40;;;17.10;54.40;;;;;;5134128;27;20200;-69
2022/03/29 06:32:59;;;;;;;7.85;7.03;;;17.10;54.40;;;;;;5133340;27;20175;-68
2022/03/29 06:35:26;;;;;;;7.20;6.25;;;17.10;54.20;;;;;;5134017;27;20643;-69
2022/03/29 06:37:53;;;;;;;6.95;6.25;;;17.10;54.30;;;;;;5134053;27;20188;-70
2022/03/29 06:40:21;;;;;;;8.13;6.00;;;17.20;54.20;;;;;;5132167;27;20172;-70
2022/03/29 06:42:46;;;;;;;6.90;6.28;;;17.30;54.20;;;;;;5133897;27;20271;-73
2022/03/29 06:45:12;;;;;;;6.90;6.25;;;17.40;54.00;;;;;;5133424;27;20188;-72
2022/03/29 06:47:37;;;;;;;7.55;6.50;;;17.60;53.80;;;;;;5133317;27;20175;-74
2022/03/29 06:50:03;;;;;;;7.72;6.43;;;17.80;53.60;;;;;;5133933;27;20179;-74
2022/03/29 06:52:34;;;;;;;8.57;6.30;;;18.00;53.30;;;;;;5132884;27;20257;-74
2022/03/29 06:55:00;;;;;;;9.88;6.45;;;18.20;53.00;;;;;;5133703;27;20263;-73
2022/03/29 06:57:25;;;;;;;7.90;6.53;;;18.40;52.60;;;;;;5132840;27;20232;-74
2022/03/29 06:59:51;;;;;;;11.32;6.68;;;18.50;52.40;;;;;;5132557;27;20635;-73
2022/03/29 07:02:16;;;;;;;10.77;6.22;;;18.60;52.20;;;;;;5133411;27;20208;-77
2022/03/29 07:04:42;;;;;;;6.47;5.65;;;18.70;52.00;;;;;;5133722;27;20213;-70
2022/03/29 07:07:08;;;;;;;7.65;5.85;;;18.90;51.80;;;;;;5132681;27;20176;-74
2022/03/29 07:12:18;;;;;;;8.45;5.10;;;18.90;51.60;;;;;;5132926;27;20608;-74
2022/03/29 07:14:43;;;;;;;10.73;5.50;;;18.90;51.60;;;;;;5132559;27;20276;-74
2022/03/29 07:17:13;;;;;;;6.95;5.43;;;18.80;51.70;;;;;;5133098;27;20303;-73
2022/03/29 07:19:39;;;;;;;6.53;4.50;;;18.80;51.80;;;;;;5133429;27;20640;-72
2022/03/29 07:22:04;;;;;;;6.53;4.88;;;18.60;51.90;;;;;;5132677;27;20204;-73
2022/03/29 07:24:30;;;;;;;6.68;4.82;;;18.60;52.10;;;;;;5132908;27;20161;-73
2022/03/29 07:26:56;;;;;;;5.50;5.00;;;18.50;52.20;;;;;;5133067;27;20543;-72
2022/03/29 07:29:21;;;;;;;5.63;4.85;;;18.40;52.30;;;;;;5132007;27;20630;-71
2022/03/29 07:31:47;;;;;;;6.25;4.90;;;18.40;52.50;;;;;;5133067;27;20179;-71
2022/03/29 07:34:12;;;;;;;6.63;5.72;;;18.30;52.50;;;;;;5132860;27;20172;-70
2022/03/29 07:36:38;;;;;;;5.75;5.15;;;18.30;52.60;;;;;;5132342;27;20196;-70
2022/03/29 07:39:04;;;;;;;6.03;5.22;;;18.20;52.60;;;;;;5133078;27;20180;-70
2022/03/29 07:41:29;;;;;;;6.60;5.10;;;18.20;52.70;;;;;;5132596;27;20573;-71
2022/03/29 07:43:55;;;;;;;6.20;5.25;;;18.10;52.80;;;;;;5132558;27;20263;-71
2022/03/29 07:46:20;;;;;;;5.45;4.95;;;18.10;52.90;;;;;;5132531;27;20191;-73
2022/03/29 07:48:46;;;;;;;4.60;4.18;;;18.00;53.00;;;;;;5132238;27;20179;-71
2022/03/29 07:51:11;;;;;;;6.45;5.30;;;18.00;53.00;;;;;;5132362;27;20169;-72
2022/03/29 07:53:38;;;;;;;6.75;4.65;;;18.00;53.10;;;;;;5132712;27;20169;-72
2022/03/29 07:56:04;;;;;;;6.30;4.95;;;17.90;53.10;;;;;;5131714;27;20231;-72
2022/03/29 07:58:29;;;;;;;6.45;4.93;;;17.90;53.20;;;;;;5132539;28;20173;-72
2022/03/29 08:00:55;;;;;;;5.85;5.28;;;17.90;53.30;;;;;;5132932;27;20174;-70
2022/03/29 08:03:21;;;;;;;5.75;5.25;;;17.90;53.40;;;;;;5131813;28;20175;-70
2022/03/29 08:05:47;;;;;;;6.25;4.90;;;18.00;53.40;;;;;;5133062;28;20243;-71
2022/03/29 08:08:14;;;;;;;5.75;5.15;;;18.00;53.30;;;;;;5132469;28;20176;-72
2022/03/29 08:10:40;;;;;;;5.55;4.78;;;18.10;53.20;;;;;;5131937;28;20176;-73
2022/03/29 08:13:07;;;;;;;6.00;4.80;;;18.10;53.20;;;;;;5132727;28;20180;-72
2022/03/29 08:15:33;;;;;;;5.60;5.10;;;18.00;53.10;;;;;;5132434;28;20603;-73
2022/03/29 08:17:59;;;;;;;5.82;5.22;;;18.00;53.10;;;;;;5130890;28;20200;-72
2022/03/29 08:20:25;;;;;;;5.43;4.88;;;18.00;53.10;;;;;;5132187;28;20699;-72
2022/03/29 08:22:51;;;;;;;5.78;5.18;;;18.00;53.20;;;;;;5114493;28;20192;-73
2022/03/29 08:25:18;;;;;;;5.78;5.28;;;18.00;53.20;;;;;;5131416;27;20173;-72
2022/03/29 08:27:44;;;;;;;7.30;5.13;;;18.00;53.10;;;;;;5132526;28;20589;-72
2022/03/29 08:30:13;;;;;;;5.80;5.30;;;18.10;53.20;;;;;;5132207;28;20189;-72
2022/03/29 08:32:38;;;;;;;5.25;4.75;;;18.10;53.10;;;;;;5131973;28;20189;-70
2022/03/29 08:35:06;;;;;;;7.38;5.15;;;18.10;53.10;;;;;;5132396;28;20176;-68
2022/03/29 08:37:32;;;;;;;6.03;5.03;;;18.10;53.10;;;;;;5132303;28;20212;-68
2022/03/29 08:39:57;;;;;;;6.03;5.43;;;18.10;53.00;;;;;;5131627;28;20168;-71
2022/03/29 08:42:23;;;;;;;5.50;5.00;;;18.10;53.10;;;;;;5131988;28;20472;-72
2022/03/29 08:44:49;;;;;;;6.57;4.97;;;18.10;53.10;;;;;;5114331;28;20203;-71
2022/03/29 08:47:15;;;;;;;6.00;5.30;;;18.10;53.00;;;;;;5131128;28;20529;-71
2022/03/29 08:49:41;;;;;;;5.68;5.18;;;18.10;53.10;;;;;;5132077;28;20173;-72
2022/03/29 08:52:07;;;;;;;6.03;5.43;;;18.10;53.10;;;;;;5112774;28;20176;-71
2022/03/29 08:54:32;;;;;;;5.50;5.00;;;18.20;53.00;;;;;;5132056;27;20203;-72
2022/03/29 08:56:59;;;;;;;6.22;5.63;;;18.20;52.90;;;;;;5132020;28;20228;-71
2022/03/29 08:59:26;;;;;;;5.78;5.07;;;18.20;52.90;;;;;;5131266;28;20187;-72
2022/03/29 09:01:51;;;;;;;6.32;5.53;;;18.20;52.90;;;;;;5108276;28;20644;-72
2022/03/29 09:04:20;;;;;;;7.28;5.07;;;18.20;52.90;;;;;;5113641;28;20264;-72
2022/03/29 09:06:55;;;;;;;8.48;5.68;;;18.20;53.00;;;;;;5114587;28;20181;-73
2022/03/29 09:09:31;;;;;;;6.22;5.63;;;18.20;53.10;;;;;;5114934;28;20646;-71
2022/03/29 09:11:57;;;;;;;6.20;5.60;;;18.20;53.20;;;;;;5115454;28;20515;-71
2022/03/29 09:14:24;;;;;;;6.60;5.90;;;18.10;53.10;;;;;;5113835;28;20521;-72
2022/03/29 09:16:51;;;;;;;7.38;6.63;;;18.10;53.10;;;;;;5115061;28;20205;-71
2022/03/29 09:19:18;;;;;;;9.90;7.30;;;18.10;53.10;;;;;;5096727;28;20181;-70
2022/03/29 09:21:44;;;;;;;8.52;7.63;;;18.00;53.00;;;;;;5114517;28;20185;-68
2022/03/29 09:24:12;;;;;;;10.43;6.97;;;18.10;53.00;;;;;;5115056;28;20250;-73
2022/03/29 09:26:42;;;;;;;7.47;6.70;;;18.10;53.00;;;;;;5115343;28;20533;-74
2022/03/29 09:29:24;;;;;;;10.10;7.50;;;18.10;52.80;;;;;;5114306;28;20228;-74
2022/03/29 09:32:04;;;;;;;8.57;7.68;;;18.10;53.10;;;;;;5114914;28;20216;-75
2022/03/29 09:34:30;;;;;;;11.50;7.18;;;18.10;53.10;;;;;;5114925;27;20177;-72
2022/03/29 09:36:55;;;;;;;7.88;7.03;;;18.10;53.10;;;;;;5124680;27;20250;-71
2022/03/29 09:39:31;;;;;;;7.22;6.43;;;18.30;53.20;;;;;;5130882;27;20173;-72
2022/03/29 09:41:58;;;;;;;7.57;6.85;;;18.40;53.00;;;;;;5134549;27;20249;-72
2022/03/29 09:44:25;;;;;;;7.53;6.82;;;18.50;52.80;;;;;;5134817;27;20176;-70
2022/03/29 09:47:04;;;;;;;7.78;5.95;;;18.60;52.70;;;;;;5100091;27;20191;-72
2022/03/29 09:49:31;;;;;;;7.00;6.30;;;18.60;52.60;;;;;;5134245;27;20172;-73
2022/03/29 09:52:15;;;;;;;7.10;6.40;;;18.70;52.60;;;;;;5116422;27;20176;-69
2022/03/29 09:54:40;;;;;;;7.88;7.07;;;18.70;52.60;;;;;;5134905;27;20558;-70
2022/03/29 09:57:06;;;;;;;7.55;6.70;;;18.80;52.60;;;;;;5133780;27;20330;-70
2022/03/29 09:59:36;;;;;;;7.03;6.32;;;18.80;52.40;;;;;;5134826;27;20181;-74
2022/03/29 10:02:01;;;;;;;9.50;6.70;;;18.70;52.40;;;;;;5134924;27;20211;-73
2022/03/29 10:04:29;;;;;;;8.93;7.35;;;18.70;52.60;;;;;;5098061;27;20200;-71
2022/03/29 10:06:56;;;;;;;9.32;7.20;;;18.60;52.70;;;;;;5134968;27;20279;-74
2022/03/29 10:09:28;;;;;;;8.73;7.78;;;18.60;52.70;;;;;;5133509;27;20259;-78
2022/03/29 10:12:04;;;;;;;8.98;7.70;;;18.60;52.60;;;;;;5116803;27;20702;-77
2022/03/29 10:14:36;;;;;;;9.48;8.18;;;18.60;52.60;;;;;;5134535;27;20279;-75
2022/03/29 10:17:01;;;;;;;9.40;8.30;;;18.60;52.70;;;;;;5135926;27;20295;-76
2022/03/29 10:19:27;;;;;;;10.10;9.10;;;18.50;52.70;;;;;;5116504;27;20204;-74
2022/03/29 10:21:58;;;;;;;11.68;9.80;;;18.60;52.60;;;;;;5136517;27;20215;-76
2022/03/29 10:24:24;;;;;;;11.00;9.77;;;18.60;52.30;;;;;;5134909;27;20173;-77
2022/03/29 10:26:51;;;;;;;11.98;10.10;;;18.60;52.40;;;;;;5134690;27;20245;-74
2022/03/29 10:29:16;;;;;;;13.77;9.23;;;18.60;52.30;;;;;;5115823;27;20183;-73
2022/03/29 10:32:26;;;;;;;10.43;9.43;;;18.60;52.20;;;;;;5133647;27;20176;-73
2022/03/29 10:35:07;;;;;;;10.75;9.65;;;18.60;52.20;;;;;;5095720;27;20496;-73
2022/03/29 10:37:53;;;;;;;11.80;9.70;;;18.60;52.30;;;;;;5133489;27;20219;-72
2022/03/29 10:40:37;;;;;;;11.15;9.95;;;18.60;52.10;;;;;;5127317;27;20173;-72
2022/03/29 10:43:29;;;;;;;13.35;10.93;;;18.60;52.00;;;;;;5133622;27;20220;-73
2022/03/29 10:45:54;;;;;;;13.05;10.63;;;18.60;51.90;;;;;;5124364;27;20184;-72
2022/03/29 10:48:20;;;;;;;14.32;11.40;;;18.60;51.90;;;;;;5133739;27;20241;-74
2022/03/29 10:50:53;;;;;;;11.85;10.43;;;18.70;51.90;;;;;;5134222;27;20164;-74
2022/03/29 10:53:28;;;;;;;13.77;11.10;;;18.70;51.90;;;;;;5132907;27;20665;-72
2022/03/29 10:56:13;;;;;;;14.35;10.63;;;18.70;51.90;;;;;;5133329;27;20578;-73
2022/03/29 10:59:09;;;;;;;15.50;10.52;;;18.70;51.80;;;;;;5133305;27;20188;-74
2022/03/29 11:01:39;;;;;;;15.25;10.27;;;18.70;51.90;;;;;;5133951;27;20168;-73
2022/03/29 11:04:07;;;;;;;13.13;10.60;;;18.70;52.30;;;;;;5133935;27;20180;-73
2022/03/29 11:06:33;;;;;;;13.27;9.55;;;18.70;52.20;;;;;;5133302;27;20247;-73
2022/03/29 11:09:06;;;;;;;11.60;9.82;;;18.70;52.20;;;;;;5115325;27;20579;-73
2022/03/29 11:11:43;;;;;;;12.73;10.35;;;18.70;52.10;;;;;;5133453;27;20569;-76
2022/03/29 11:14:27;;;;;;;13.60;9.77;;;18.80;52.00;;;;;;5132481;27;20212;-73
2022/03/29 11:16:52;;;;;;;13.07;9.32;;;18.80;51.90;;;;;;5133258;27;20204;-73
2022/03/29 11:19:47;;;;;;;12.82;10.20;;;18.80;51.90;;;;;;5133033;27;20172;-74
2022/03/29 11:22:28;;;;;;;11.98;10.57;;;18.80;51.70;;;;;;5132919;27;20243;-74
2022/03/29 11:24:59;;;;;;;12.93;10.18;;;18.80;51.50;;;;;;5133244;27;20579;-71
2022/03/29 11:27:28;;;;;;;12.63;9.93;;;18.80;51.50;;;;;;5131856;27;20173;-68
2022/03/29 11:29:55;;;;;;;12.13;9.63;;;18.80;51.50;;;;;;5133198;27;20603;-70
2022/03/29 11:32:20;;;;;;;12.73;10.35;;;18.90;51.50;;;;;;5132845;27;20194;-69
2022/03/29 11:34:46;;;;;;;10.50;9.18;;;19.00;51.40;;;;;;5132393;27;20180;-70
2022/03/29 11:37:27;;;;;;;12.35;10.02;;;19.00;51.30;;;;;;5114259;27;20212;-72
2022/03/29 11:39:52;;;;;;;13.45;10.18;;;19.00;51.40;;;;;;5133053;27;20307;-73
2022/03/29 11:42:18;;;;;;;17.85;10.80;;;19.00;51.30;;;;;;5131784;27;20180;-72
2022/03/29 11:44:46;;;;;;;15.70;10.00;;;19.00;51.10;;;;;;5133077;27;20255;-73
2022/03/29 11:47:12;;;;;;;12.50;9.63;;;19.00;51.10;;;;;;5132585;27;20172;-73
2022/03/29 11:49:39;;;;;;;11.23;10.02;;;19.00;51.10;;;;;;5132333;27;20241;-75
2022/03/29 11:52:12;;;;;;;13.13;9.52;;;19.00;51.00;;;;;;5133267;27;20188;-75
2022/03/29 11:54:43;;;;;;;11.38;9.52;;;19.00;50.90;;;;;;5132738;27;20225;-73
2022/03/29 11:57:23;;;;;;;13.20;11.02;;;19.00;50.80;;;;;;5131590;27;20263;-73
2022/03/29 11:59:49;;;;;;;10.82;9.57;;;19.00;50.70;;;;;;5132750;28;20645;-72
2022/03/29 12:02:18;;;;;;;12.82;10.50;;;19.00;50.70;;;;;;5132000;28;20193;-72
2022/03/29 12:04:44;;;;;;;11.70;10.45;;;19.10;50.60;;;;;;5132728;28;20662;-73
2022/03/29 12:07:10;;;;;;;11.32;9.13;;;19.10;50.50;;;;;;5132603;28;20184;-73
2022/03/29 12:09:35;;;;;;;10.90;9.63;;;19.10;51.10;;;;;;5132321;28;20171;-74
2022/03/29 12:12:03;;;;;;;11.50;9.43;;;19.10;50.50;;;;;;5132752;28;20644;-74
2022/03/29 12:14:29;;;;;;;9.90;8.40;;;19.10;50.40;;;;;;5132333;27;20213;-73
2022/03/29 12:16:59;;;;;;;11.70;9.07;;;19.20;50.40;;;;;;5132049;27;20212;-72
2022/03/29 12:19:27;;;;;;;10.32;9.02;;;19.20;50.40;;;;;;5132539;27;20337;-73
2022/03/29 12:21:57;;;;;;;10.57;9.30;;;19.20;50.40;;;;;;5132536;27;20275;-73
2022/03/29 12:24:23;;;;;;;10.55;8.93;;;19.20;50.30;;;;;;5131376;28;20538;-73
2022/03/29 12:27:02;;;;;;;9.32;8.43;;;19.20;50.30;;;;;;5114082;27;20229;-73
2022/03/29 12:29:28;;;;;;;11.10;8.45;;;19.20;50.30;;;;;;5097732;28;20183;-73
2022/03/29 12:31:54;;;;;;;9.65;8.68;;;19.20;50.20;;;;;;5113551;28;20606;-72
2022/03/29 12:34:24;;;;;;;9.10;8.20;;;19.20;50.20;;;;;;5113605;28;20173;-72
2022/03/29 12:36:57;;;;;;;9.68;8.70;;;19.20;50.20;;;;;;5097323;28;20272;-72
2022/03/29 12:39:23;;;;;;;9.20;8.25;;;19.20;50.20;;;;;;5133890;27;20183;-72
2022/03/29 12:41:54;;;;;;;10.05;7.85;;;19.30;50.30;;;;;;5136118;27;20172;-72
2022/03/29 12:44:43;;;;;;;9.70;8.25;;;19.30;50.20;;;;;;5135360;27;20195;-73
2022/03/29 12:47:08;;;;;;;8.55;7.55;;;19.30;50.10;;;;;;5136066;27;20316;-74
2022/03/29 12:49:35;;;;;;;8.55;7.75;;;19.30;50.00;;;;;;5136175;27;20636;-73
2022/03/29 12:52:02;;;;;;;8.88;7.63;;;19.40;50.00;;;;;;5135332;27;20179;-73